Time;durP1;ratioP1;P1;durP2;ratioP2;P2;SDS_P1;SDS_P2;PMS_P1;PMS_P2;Temp;Humidity;BMP_temperature;BMP_pressure;BME280_temperature;BME280_humidity;BME280_pressure;Samples;Min_cycle;Max_cycle;Signal;HPM_P1;HPM_P2
2024/01/28 00:01:52;;;;;;;10.85;7.32;;;;;;;;;;4932138;29;20024;-56
2024/01/28 00:04:18;;;;;;;13.18;8.70;;;;;;;;;;4939857;29;20391;-55
2024/01/28 00:06:43;;;;;;;10.68;9.48;;;;;;;;;;4939126;29;20088;-57
2024/01/28 00:09:09;;;;;;;9.82;8.65;;;;;;;;;;4932200;29;20056;-58
2024/01/28 00:11:35;;;;;;;10.05;8.60;;;;;;;;;;4930898;29;20055;-53
2024/01/28 00:14:00;;;;;;;11.63;8.20;;;;;;;;;;4935359;29;20122;-59
2024/01/28 00:16:26;;;;;;;12.23;9.13;;;;;;;;;;4936771;29;20136;-56
2024/01/28 00:18:57;;;;;;;10.52;9.43;;;;;;;;;;4938498;29;20107;-57
2024/01/28 00:21:26;;;;;;;11.32;8.13;;;;;;;;;;4932708;29;20032;-57
2024/01/28 00:23:52;;;;;;;12.57;8.25;;;;;;;;;;4938851;29;20039;-55
2024/01/28 00:26:17;;;;;;;11.77;9.88;;;;;;;;;;4936800;29;20035;-58
2024/01/28 00:28:43;;;;;;;10.30;7.80;;;;;;;;;;4936973;29;20034;-59
2024/01/28 00:31:12;;;;;;;10.13;8.13;;;;;;;;;;4931703;29;20130;-58
2024/01/28 00:33:37;;;;;;;9.30;7.35;;;;;;;;;;4937656;29;20693;-58
2024/01/28 00:36:03;;;;;;;10.75;7.57;;;;;;;;;;4931315;29;20032;-58
2024/01/28 00:38:31;;;;;;;11.23;8.02;;;;;;;;;;4937978;29;20035;-58
2024/01/28 00:40:59;;;;;;;11.23;7.90;;;;;;;;;;4939369;29;20039;-57
2024/01/28 00:43:25;;;;;;;9.57;8.63;;;;;;;;;;4937476;29;20031;-58
2024/01/28 00:45:50;;;;;;;9.73;8.20;;;;;;;;;;4939267;29;20027;-56
2024/01/28 00:48:15;;;;;;;8.38;7.57;;;;;;;;;;4935780;29;20063;-58
2024/01/28 00:50:41;;;;;;;9.07;8.15;;;;;;;;;;4939165;29;20379;-58
2024/01/28 00:53:06;;;;;;;12.27;8.80;;;;;;;;;;4936211;29;20073;-58
2024/01/28 00:55:32;;;;;;;10.55;7.70;;;;;;;;;;4928326;29;20051;-56
2024/01/28 00:57:58;;;;;;;9.95;7.55;;;;;;;;;;4935890;29;20032;-59
2024/01/28 01:00:25;;;;;;;11.38;9.10;;;;;;;;;;4932118;29;20036;-58
2024/01/28 01:02:52;;;;;;;9.13;8.10;;;;;;;;;;4937925;29;20033;-57
2024/01/28 01:05:17;;;;;;;12.80;10.13;;;;;;;;;;4933470;29;20040;-58
2024/01/28 01:07:43;;;;;;;13.45;8.82;;;;;;;;;;4930706;29;20044;-56
2024/01/28 01:10:08;;;;;;;10.57;9.10;;;;;;;;;;4935633;29;20923;-57
2024/01/28 01:12:34;;;;;;;9.52;7.40;;;;;;;;;;4927884;29;20023;-58
2024/01/28 01:14:59;;;;;;;11.60;8.75;;;;;;;;;;4936522;29;20106;-57
2024/01/28 01:17:25;;;;;;;12.38;9.05;;;;;;;;;;4937916;29;20039;-59
2024/01/28 01:19:50;;;;;;;10.45;9.43;;;;;;;;;;4937142;29;20043;-57
2024/01/28 01:22:15;;;;;;;10.07;8.88;;;;;;;;;;4934796;29;20098;-56
2024/01/28 01:24:41;;;;;;;11.50;10.40;;;;;;;;;;4933522;29;20038;-57
2024/01/28 01:27:07;;;;;;;13.25;8.93;;;;;;;;;;4938513;29;20020;-58
2024/01/28 01:29:33;;;;;;;11.32;9.15;;;;;;;;;;4934558;29;20442;-55
2024/01/28 01:31:58;;;;;;;12.85;9.38;;;;;;;;;;4937647;29;20034;-57
2024/01/28 01:34:23;;;;;;;12.65;10.38;;;;;;;;;;4934904;29;20032;-58
2024/01/28 01:36:49;;;;;;;10.45;9.15;;;;;;;;;;4931013;29;20043;-58
2024/01/28 01:39:16;;;;;;;12.73;10.98;;;;;;;;;;4931216;29;20048;-57
2024/01/28 01:41:43;;;;;;;12.73;10.02;;;;;;;;;;4928519;29;20390;-57
2024/01/28 01:44:09;;;;;;;13.80;10.73;;;;;;;;;;4934685;29;20051;-58
2024/01/28 01:46:35;;;;;;;12.52;10.57;;;;;;;;;;4936688;29;20378;-56
2024/01/28 01:49:00;;;;;;;11.50;9.60;;;;;;;;;;4933051;29;20030;-57
2024/01/28 01:51:26;;;;;;;11.95;9.13;;;;;;;;;;4932728;29;20442;-58
2024/01/28 01:53:52;;;;;;;12.48;8.93;;;;;;;;;;4936135;29;20110;-57
2024/01/28 01:56:18;;;;;;;11.82;9.55;;;;;;;;;;4931479;29;20059;-58
2024/01/28 01:58:46;;;;;;;12.35;10.95;;;;;;;;;;4936124;29;20028;-56
2024/01/28 02:01:16;;;;;;;12.77;9.18;;;;;;;;;;4933115;29;20086;-57
2024/01/28 02:03:42;;;;;;;14.02;10.00;;;;;;;;;;4931057;29;20031;-57
2024/01/28 02:06:07;;;;;;;12.95;10.02;;;;;;;;;;4936778;29;20058;-57
2024/01/28 02:08:33;;;;;;;13.05;10.02;;;;;;;;;;4935346;29;20031;-58
2024/01/28 02:11:02;;;;;;;12.48;11.07;;;;;;;;;;4936049;29;20036;-56
2024/01/28 02:13:28;;;;;;;12.20;10.68;;;;;;;;;;4934992;29;20856;-56
2024/01/28 02:15:53;;;;;;;14.38;10.52;;;;;;;;;;4934427;29;20098;-57
2024/01/28 02:18:18;;;;;;;10.30;8.95;;;;;;;;;;4934143;29;20024;-56
2024/01/28 02:20:44;;;;;;;11.52;10.35;;;;;;;;;;4934311;29;20412;-57
2024/01/28 02:23:10;;;;;;;13.13;8.55;;;;;;;;;;4929204;29;20044;-58
2024/01/28 02:25:35;;;;;;;9.63;8.63;;;;;;;;;;4934062;29;20131;-56
2024/01/28 02:28:01;;;;;;;12.48;10.05;;;;;;;;;;4934356;29;20028;-57
2024/01/28 02:30:26;;;;;;;11.73;8.52;;;;;;;;;;4946214;28;20055;-55
2024/01/28 02:32:52;;;;;;;10.60;9.38;;;;;;;;;;4931927;29;20027;-57
2024/01/28 02:35:18;;;;;;;13.77;9.75;;;;;;;;;;4930492;29;20043;-56
2024/01/28 02:37:44;;;;;;;13.43;9.32;;;;;;;;;;4934985;29;20035;-58
2024/01/28 02:40:10;;;;;;;10.63;9.00;;;;;;;;;;4933762;29;20036;-57
2024/01/28 02:42:35;;;;;;;11.48;9.00;;;;;;;;;;4930931;29;20027;-57
2024/01/28 02:45:01;;;;;;;11.85;9.02;;;;;;;;;;4933275;29;20039;-57
2024/01/28 02:47:26;;;;;;;14.10;10.27;;;;;;;;;;4937366;29;20024;-58
2024/01/28 02:49:52;;;;;;;12.35;10.02;;;;;;;;;;4929705;29;20038;-57
2024/01/28 02:52:17;;;;;;;14.23;9.65;;;;;;;;;;4932862;29;20541;-58
2024/01/28 02:54:43;;;;;;;12.73;10.52;;;;;;;;;;4936351;29;20043;-55
2024/01/28 02:57:08;;;;;;;11.88;9.80;;;;;;;;;;4935587;29;20035;-56
2024/01/28 02:59:34;;;;;;;11.70;10.38;;;;;;;;;;4934403;29;20122;-58
2024/01/28 03:01:59;;;;;;;14.43;12.10;;;;;;;;;;4937165;29;20055;-56
2024/01/28 03:04:25;;;;;;;10.45;9.38;;;;;;;;;;4935230;29;20122;-57
2024/01/28 03:06:50;;;;;;;11.57;9.40;;;;;;;;;;4932933;29;20159;-54
2024/01/28 03:09:17;;;;;;;17.25;11.93;;;;;;;;;;4930064;29;20102;-57
2024/01/28 03:11:42;;;;;;;16.85;11.40;;;;;;;;;;4933960;29;20023;-54
2024/01/28 03:14:07;;;;;;;16.35;9.93;;;;;;;;;;4935260;29;20048;-58
2024/01/28 03:16:33;;;;;;;15.63;9.85;;;;;;;;;;4934918;29;20564;-56
2024/01/28 03:18:58;;;;;;;14.68;10.02;;;;;;;;;;4938381;29;20027;-56
2024/01/28 03:21:24;;;;;;;10.07;8.88;;;;;;;;;;4938363;29;20034;-56
2024/01/28 03:23:49;;;;;;;15.45;11.55;;;;;;;;;;4939157;29;20039;-55
2024/01/28 03:26:15;;;;;;;10.57;8.65;;;;;;;;;;4939335;29;20040;-54
2024/01/28 03:28:42;;;;;;;14.00;10.73;;;;;;;;;;4938395;29;20095;-56
2024/01/28 03:31:08;;;;;;;16.17;10.30;;;;;;;;;;4941382;29;20027;-55
2024/01/28 03:33:34;;;;;;;11.60;9.60;;;;;;;;;;4941242;29;20543;-58
2024/01/28 03:35:59;;;;;;;11.57;10.02;;;;;;;;;;4938656;29;20044;-56
2024/01/28 03:38:25;;;;;;;14.10;10.48;;;;;;;;;;4936605;29;20024;-56
2024/01/28 03:40:50;;;;;;;13.20;10.18;;;;;;;;;;4936489;29;20057;-56
2024/01/28 03:43:15;;;;;;;12.45;10.77;;;;;;;;;;4937027;29;20038;-57
2024/01/28 03:45:41;;;;;;;15.35;11.55;;;;;;;;;;4936810;29;20124;-54
2024/01/28 03:48:06;;;;;;;11.88;10.02;;;;;;;;;;4939990;29;20031;-57
2024/01/28 03:50:32;;;;;;;14.15;11.40;;;;;;;;;;4937737;29;20043;-56
2024/01/28 03:52:57;;;;;;;14.50;10.65;;;;;;;;;;4940997;29;20051;-56
2024/01/28 03:55:23;;;;;;;13.77;10.45;;;;;;;;;;4930932;29;20559;-56
2024/01/28 03:57:48;;;;;;;18.45;11.77;;;;;;;;;;4940314;29;20039;-55
2024/01/28 04:00:15;;;;;;;22.60;13.98;;;;;;;;;;4936399;29;20062;-55
2024/01/28 04:02:41;;;;;;;26.58;16.42;;;;;;;;;;4938738;29;20474;-56
2024/01/28 04:05:06;;;;;;;23.67;14.52;;;;;;;;;;4939406;29;20038;-52
2024/01/28 04:07:32;;;;;;;23.60;13.70;;;;;;;;;;4940247;29;20039;-55
2024/01/28 04:09:57;;;;;;;25.77;13.55;;;;;;;;;;4937782;29;20043;-56
2024/01/28 04:12:23;;;;;;;21.52;12.70;;;;;;;;;;4939982;29;20023;-53
2024/01/28 04:14:48;;;;;;;19.52;13.90;;;;;;;;;;4937041;29;20613;-54
2024/01/28 04:17:14;;;;;;;15.32;11.18;;;;;;;;;;4938644;29;20072;-54
2024/01/28 04:19:39;;;;;;;17.30;12.82;;;;;;;;;;4938871;29;20042;-58
2024/01/28 04:22:06;;;;;;;17.33;11.43;;;;;;;;;;4939745;29;20031;-57
2024/01/28 04:24:32;;;;;;;14.70;11.52;;;;;;;;;;4935240;29;20039;-56
2024/01/28 04:26:57;;;;;;;14.52;9.85;;;;;;;;;;4939750;29;20496;-56
2024/01/28 04:29:23;;;;;;;14.88;10.20;;;;;;;;;;4937555;28;20044;-58
2024/01/28 04:31:49;;;;;;;15.20;10.20;;;;;;;;;;4939505;29;20107;-56
2024/01/28 04:34:14;;;;;;;10.48;8.57;;;;;;;;;;4938902;29;20038;-57
2024/01/28 04:36:40;;;;;;;10.40;8.80;;;;;;;;;;4939060;29;20110;-57
2024/01/28 04:39:05;;;;;;;9.88;8.73;;;;;;;;;;4928597;29;20054;-55
2024/01/28 04:41:31;;;;;;;9.20;7.97;;;;;;;;;;4938269;29;20470;-56
2024/01/28 04:43:56;;;;;;;10.02;8.57;;;;;;;;;;4937494;29;20020;-56
2024/01/28 04:46:21;;;;;;;9.85;8.07;;;;;;;;;;4939847;29;20043;-57
2024/01/28 04:48:47;;;;;;;9.15;7.72;;;;;;;;;;4931701;29;20034;-58
2024/01/28 04:51:13;;;;;;;10.38;7.82;;;;;;;;;;4938019;29;20095;-56
2024/01/28 04:53:38;;;;;;;11.25;9.55;;;;;;;;;;4936380;29;20046;-56
2024/01/28 04:56:04;;;;;;;10.05;8.13;;;;;;;;;;4931312;29;20060;-57
2024/01/28 04:58:29;;;;;;;9.75;8.65;;;;;;;;;;4938350;29;20024;-57
2024/01/28 05:00:54;;;;;;;9.88;8.60;;;;;;;;;;4938554;29;20035;-57
2024/01/28 05:03:20;;;;;;;11.93;8.77;;;;;;;;;;4938921;29;20023;-53
2024/01/28 05:05:45;;;;;;;12.50;8.98;;;;;;;;;;4935680;29;20043;-55
2024/01/28 05:08:11;;;;;;;14.63;11.00;;;;;;;;;;4937573;29;20060;-57
2024/01/28 05:10:37;;;;;;;13.32;9.52;;;;;;;;;;4938014;29;20482;-57
2024/01/28 05:13:03;;;;;;;12.30;8.90;;;;;;;;;;4941401;29;20047;-56
2024/01/28 05:15:28;;;;;;;10.98;8.10;;;;;;;;;;4938882;29;20070;-53
2024/01/28 05:17:54;;;;;;;10.45;8.25;;;;;;;;;;4934907;29;20083;-53
2024/01/28 05:20:19;;;;;;;11.40;8.63;;;;;;;;;;4937351;29;20040;-56
2024/01/28 05:22:44;;;;;;;11.30;8.85;;;;;;;;;;4937986;29;20027;-57
2024/01/28 05:25:10;;;;;;;8.32;6.82;;;;;;;;;;4935977;29;20031;-57
2024/01/28 05:27:39;;;;;;;11.45;8.68;;;;;;;;;;4936213;29;20032;-57
2024/01/28 05:30:04;;;;;;;;;;;;;;;;;;4937272;29;20122;-57
2024/01/28 05:32:30;;;;;;;9.98;7.50;;;;;;;;;;4940338;29;20005;-56
2024/01/28 05:34:56;;;;;;;11.30;7.63;;;;;;;;;;4930162;29;20032;-56
2024/01/28 05:37:22;;;;;;;9.68;6.47;;;;;;;;;;4935912;29;20111;-54
2024/01/28 05:39:47;;;;;;;9.77;7.45;;;;;;;;;;4934884;29;20306;-56
2024/01/28 05:42:13;;;;;;;8.43;5.97;;;;;;;;;;4940088;29;20122;-56
2024/01/28 05:44:38;;;;;;;9.05;6.90;;;;;;;;;;4937935;29;20649;-57
2024/01/28 05:47:04;;;;;;;10.07;6.72;;;;;;;;;;4934905;29;20019;-56
2024/01/28 05:49:29;;;;;;;8.48;7.57;;;;;;;;;;4936917;29;20466;-56
2024/01/28 05:51:54;;;;;;;11.63;8.73;;;;;;;;;;4936679;29;20046;-54
2024/01/28 05:54:21;;;;;;;10.30;8.02;;;;;;;;;;4937376;29;20063;-57
2024/01/28 05:56:47;;;;;;;10.52;6.85;;;;;;;;;;4937220;29;20043;-57
2024/01/28 05:59:13;;;;;;;9.52;6.90;;;;;;;;;;4929817;29;20051;-57
2024/01/28 06:01:38;;;;;;;10.27;6.60;;;;;;;;;;4929831;29;20047;-57
2024/01/28 06:04:04;;;;;;;10.38;7.28;;;;;;;;;;4932643;29;20031;-55
2024/01/28 06:06:30;;;;;;;8.13;6.20;;;;;;;;;;4936552;29;20054;-55
2024/01/28 06:08:55;;;;;;;8.43;7.43;;;;;;;;;;4932935;29;20056;-58
2024/01/28 06:11:21;;;;;;;8.43;6.65;;;;;;;;;;4932274;29;20051;-57
2024/01/28 06:13:46;;;;;;;10.15;6.38;;;;;;;;;;4934407;29;20090;-56
2024/01/28 06:16:12;;;;;;;9.95;6.57;;;;;;;;;;4937859;29;20044;-57
2024/01/28 06:18:43;;;;;;;7.40;6.22;;;;;;;;;;4937687;29;20028;-57
2024/01/28 06:21:11;;;;;;;6.82;5.72;;;;;;;;;;4937007;29;20039;-54
2024/01/28 06:23:37;;;;;;;9.10;7.40;;;;;;;;;;4936374;29;20192;-56
2024/01/28 06:26:03;;;;;;;9.02;6.55;;;;;;;;;;4936669;29;20040;-54
2024/01/28 06:28:29;;;;;;;8.38;7.18;;;;;;;;;;4937953;29;20036;-58
2024/01/28 06:30:54;;;;;;;8.38;6.50;;;;;;;;;;4934057;29;20120;-56
2024/01/28 06:33:20;;;;;;;7.97;5.85;;;;;;;;;;4936778;29;20034;-57
2024/01/28 06:35:45;;;;;;;8.63;6.70;;;;;;;;;;4935570;29;20048;-57
2024/01/28 06:38:11;;;;;;;10.50;9.10;;;;;;;;;;4935799;29;20032;-56
2024/01/28 06:40:36;;;;;;;8.82;7.82;;;;;;;;;;4934838;29;20586;-55
2024/01/28 06:43:01;;;;;;;8.70;6.28;;;;;;;;;;4931656;29;20027;-58
2024/01/28 06:45:27;;;;;;;8.80;6.20;;;;;;;;;;4935696;29;20044;-57
2024/01/28 06:47:54;;;;;;;7.47;5.93;;;;;;;;;;4937331;29;20070;-55
2024/01/28 06:50:19;;;;;;;9.82;7.18;;;;;;;;;;4936496;29;20067;-57
2024/01/28 06:52:45;;;;;;;8.95;7.00;;;;;;;;;;4939778;29;20371;-55
2024/01/28 06:55:10;;;;;;;8.27;5.78;;;;;;;;;;4940752;29;20121;-58
2024/01/28 06:57:36;;;;;;;8.00;6.05;;;;;;;;;;4941243;29;20055;-55
2024/01/28 07:00:04;;;;;;;9.02;6.45;;;;;;;;;;4940297;29;20071;-56
2024/01/28 07:02:30;;;;;;;7.43;5.97;;;;;;;;;;4936192;29;20035;-56
2024/01/28 07:04:55;;;;;;;9.70;6.25;;;;;;;;;;4937208;29;20040;-54
2024/01/28 07:07:21;;;;;;;13.30;8.25;;;;;;;;;;4933894;29;20070;-57
2024/01/28 07:09:46;;;;;;;16.52;7.90;;;;;;;;;;4936895;29;20050;-57
2024/01/28 07:12:12;;;;;;;16.90;9.55;;;;;;;;;;4934908;29;20023;-55
2024/01/28 07:14:37;;;;;;;14.18;8.73;;;;;;;;;;4933264;29;20042;-57
2024/01/28 07:17:03;;;;;;;17.92;8.75;;;;;;;;;;4939668;29;20053;-55
2024/01/28 07:19:28;;;;;;;18.50;9.80;;;;;;;;;;4930506;29;20037;-56
2024/01/28 07:21:54;;;;;;;18.10;9.77;;;;;;;;;;4937919;29;20028;-56
2024/01/28 07:24:20;;;;;;;18.40;7.68;;;;;;;;;;4938343;29;20044;-57
2024/01/28 07:26:46;;;;;;;18.33;9.77;;;;;;;;;;4939599;29;20050;-57
2024/01/28 07:29:11;;;;;;;20.25;9.13;;;;;;;;;;4939502;29;20519;-55
2024/01/28 07:31:37;;;;;;;17.00;8.45;;;;;;;;;;4937798;29;20024;-56
2024/01/28 07:34:03;;;;;;;16.73;9.32;;;;;;;;;;4936703;29;20034;-56
2024/01/28 07:36:30;;;;;;;12.82;7.32;;;;;;;;;;4939894;29;20032;-57
2024/01/28 07:38:56;;;;;;;9.55;6.28;;;;;;;;;;4933694;29;20087;-55
2024/01/28 07:41:21;;;;;;;9.07;5.90;;;;;;;;;;4938001;29;20044;-57
2024/01/28 07:43:47;;;;;;;7.10;5.60;;;;;;;;;;4938288;29;20046;-57
2024/01/28 07:46:12;;;;;;;7.60;5.40;;;;;;;;;;4939198;29;20055;-57
2024/01/28 07:48:39;;;;;;;6.88;5.38;;;;;;;;;;4937554;29;20454;-54
2024/01/28 07:51:04;;;;;;;8.77;5.18;;;;;;;;;;4936993;29;20111;-55
2024/01/28 07:53:30;;;;;;;7.38;5.32;;;;;;;;;;4939074;29;20047;-54
2024/01/28 07:55:55;;;;;;;8.02;5.28;;;;;;;;;;4939066;29;20450;-54
2024/01/28 07:58:21;;;;;;;5.72;4.28;;;;;;;;;;4932249;29;20023;-56
2024/01/28 08:00:46;;;;;;;9.15;5.20;;;;;;;;;;4936834;29;20113;-55
2024/01/28 08:03:12;;;;;;;7.03;4.93;;;;;;;;;;4937237;29;20111;-57
2024/01/28 08:05:37;;;;;;;6.10;3.90;;;;;;;;;;4935715;29;20206;-54
2024/01/28 08:08:03;;;;;;;8.77;6.30;;;;;;;;;;4930612;29;20505;-56
2024/01/28 08:10:28;;;;;;;8.45;5.97;;;;;;;;;;4927069;29;20044;-56
2024/01/28 08:12:53;;;;;;;9.40;6.22;;;;;;;;;;4936266;29;20031;-57
2024/01/28 08:15:22;;;;;;;6.55;4.60;;;;;;;;;;4939708;29;20048;-56
2024/01/28 08:17:49;;;;;;;7.68;5.82;;;;;;;;;;4937622;29;20079;-56
2024/01/28 08:20:15;;;;;;;7.22;4.43;;;;;;;;;;4933049;29;20051;-54
2024/01/28 08:22:41;;;;;;;7.78;4.10;;;;;;;;;;4931346;29;20035;-56
2024/01/28 08:25:07;;;;;;;7.63;4.43;;;;;;;;;;4934031;29;20511;-54
2024/01/28 08:27:32;;;;;;;6.32;3.72;;;;;;;;;;4938878;29;20031;-57
2024/01/28 08:29:58;;;;;;;6.05;4.05;;;;;;;;;;4934947;29;20514;-55
2024/01/28 08:32:23;;;;;;;5.53;3.78;;;;;;;;;;4939227;29;20413;-53
2024/01/28 08:34:51;;;;;;;4.40;4.00;;;;;;;;;;4938813;29;20048;-57
2024/01/28 08:37:17;;;;;;;5.78;4.68;;;;;;;;;;4936550;29;20095;-55
2024/01/28 08:39:43;;;;;;;5.05;3.88;;;;;;;;;;4939168;29;20044;-56
2024/01/28 08:42:08;;;;;;;7.63;3.83;;;;;;;;;;4934013;29;20553;-57
2024/01/28 08:44:33;;;;;;;6.65;4.53;;;;;;;;;;4932233;29;20503;-55
2024/01/28 08:46:59;;;;;;;6.88;4.72;;;;;;;;;;4939175;29;20055;-57
2024/01/28 08:49:24;;;;;;;5.32;4.45;;;;;;;;;;4938608;29;20408;-55
2024/01/28 08:51:50;;;;;;;4.90;4.43;;;;;;;;;;4937471;29;20394;-57
2024/01/28 08:54:15;;;;;;;4.70;3.63;;;;;;;;;;4937646;29;20086;-53
2024/01/28 08:56:41;;;;;;;6.38;4.10;;;;;;;;;;4936992;29;20035;-58
2024/01/28 08:59:06;;;;;;;6.78;5.32;;;;;;;;;;4936011;29;20047;-56
2024/01/28 09:01:32;;;;;;;9.68;5.55;;;;;;;;;;4937010;29;20038;-56
2024/01/28 09:03:57;;;;;;;13.15;9.50;;;;;;;;;;4934754;29;20027;-57
2024/01/28 09:06:23;;;;;;;8.55;7.45;;;;;;;;;;4932812;29;20027;-57
2024/01/28 09:08:48;;;;;;;9.57;8.00;;;;;;;;;;4935371;29;20038;-55
2024/01/28 09:11:13;;;;;;;10.90;7.65;;;;;;;;;;4933033;29;20039;-53
2024/01/28 09:13:39;;;;;;;11.80;7.40;;;;;;;;;;4941299;29;20034;-57
2024/01/28 09:16:04;;;;;;;9.30;7.50;;;;;;;;;;4930480;29;20056;-58
2024/01/28 09:18:30;;;;;;;10.05;6.70;;;;;;;;;;4933245;29;20048;-55
2024/01/28 09:20:55;;;;;;;9.10;6.78;;;;;;;;;;4939177;29;20058;-58
2024/01/28 09:23:21;;;;;;;11.55;9.05;;;;;;;;;;4935082;29;20094;-57
2024/01/28 09:25:46;;;;;;;10.85;8.55;;;;;;;;;;4934630;29;20115;-57
2024/01/28 09:28:11;;;;;;;11.52;9.20;;;;;;;;;;4935068;29;20036;-59
2024/01/28 09:30:39;;;;;;;11.57;7.68;;;;;;;;;;4937687;29;20111;-59
2024/01/28 09:33:05;;;;;;;10.65;6.65;;;;;;;;;;4928897;29;20633;-59
2024/01/28 09:35:31;;;;;;;11.50;8.20;;;;;;;;;;4932601;29;20086;-58
2024/01/28 09:37:57;;;;;;;9.60;7.05;;;;;;;;;;4934792;29;20023;-60
2024/01/28 09:40:22;;;;;;;12.25;8.25;;;;;;;;;;4939379;29;20114;-58
2024/01/28 09:43:34;;;;;;;9.93;7.32;;;;;;;;;;4929525;29;20032;-59
2024/01/28 09:46:00;;;;;;;9.60;8.05;;;;;;;;;;4927226;29;20052;-59
2024/01/28 09:48:26;;;;;;;8.98;7.22;;;;;;;;;;4938146;29;20055;-57
2024/01/28 09:50:52;;;;;;;9.70;8.13;;;;;;;;;;4930803;29;20043;-58
2024/01/28 09:53:17;;;;;;;10.02;9.00;;;;;;;;;;4932787;29;20439;-59
2024/01/28 09:55:43;;;;;;;8.93;7.47;;;;;;;;;;4928962;29;20036;-59
2024/01/28 09:58:09;;;;;;;7.88;6.32;;;;;;;;;;4933510;29;21051;-59
2024/01/28 10:00:36;;;;;;;8.82;6.65;;;;;;;;;;4931683;29;20035;-59
2024/01/28 10:03:03;;;;;;;7.70;6.78;;;;;;;;;;4933923;29;20463;-58
2024/01/28 10:05:28;;;;;;;9.93;6.43;;;;;;;;;;4931092;29;20127;-60
2024/01/28 10:08:04;;;;;;;7.57;5.53;;;;;;;;;;4933601;29;20125;-59
2024/01/28 10:10:33;;;;;;;8.88;7.30;;;;;;;;;;4931594;29;20047;-58
2024/01/28 10:12:59;;;;;;;5.43;4.45;;;;;;;;;;4929903;29;20043;-58
2024/01/28 10:15:28;;;;;;;6.93;5.25;;;;;;;;;;4932692;29;20056;-57
2024/01/28 10:17:53;;;;;;;8.85;6.45;;;;;;;;;;4932794;29;20039;-58
2024/01/28 10:20:24;;;;;;;5.57;4.88;;;;;;;;;;4933934;29;20050;-58
2024/01/28 10:22:51;;;;;;;7.47;5.05;;;;;;;;;;4936822;29;20114;-58
2024/01/28 10:25:17;;;;;;;9.10;6.15;;;;;;;;;;4938789;29;20039;-59
2024/01/28 10:27:44;;;;;;;7.20;6.18;;;;;;;;;;4935978;28;20030;-58
2024/01/28 10:30:11;;;;;;;9.98;6.13;;;;;;;;;;4934460;29;20059;-58
2024/01/28 10:32:37;;;;;;;8.23;5.85;;;;;;;;;;4937294;29;22876;-57
2024/01/28 10:35:10;;;;;;;7.22;5.72;;;;;;;;;;4931143;29;20039;-59
2024/01/28 10:37:35;;;;;;;6.30;5.60;;;;;;;;;;4931882;29;20060;-59
2024/01/28 10:40:07;;;;;;;6.85;5.28;;;;;;;;;;4930818;29;20070;-57
2024/01/28 10:42:39;;;;;;;7.45;5.78;;;;;;;;;;4928557;29;20023;-59
2024/01/28 10:45:07;;;;;;;8.40;6.35;;;;;;;;;;4936828;29;20050;-59
2024/01/28 10:47:35;;;;;;;12.57;7.45;;;;;;;;;;4927361;29;20447;-59
2024/01/28 10:50:05;;;;;;;8.75;6.95;;;;;;;;;;4931729;29;20101;-59
2024/01/28 10:52:32;;;;;;;10.73;7.45;;;;;;;;;;4933414;29;20019;-56
2024/01/28 10:54:59;;;;;;;9.43;8.43;;;;;;;;;;4930533;29;20046;-58
2024/01/28 10:57:26;;;;;;;9.40;6.95;;;;;;;;;;4932236;29;20091;-58
2024/01/28 10:59:52;;;;;;;9.10;8.02;;;;;;;;;;4935315;29;20051;-60
2024/01/28 11:02:20;;;;;;;9.23;7.63;;;;;;;;;;4938809;28;20038;-60
2024/01/28 11:04:46;;;;;;;9.32;8.43;;;;;;;;;;4934361;29;20095;-59
2024/01/28 11:07:12;;;;;;;9.82;8.15;;;;;;;;;;4935392;29;20023;-59
2024/01/28 11:09:38;;;;;;;9.75;7.82;;;;;;;;;;4932565;29;20042;-59
2024/01/28 11:12:04;;;;;;;11.43;7.85;;;;;;;;;;4936844;29;20030;-59
2024/01/28 11:14:30;;;;;;;9.00;6.90;;;;;;;;;;4931721;29;20103;-59
2024/01/28 11:16:56;;;;;;;10.75;8.23;;;;;;;;;;4934266;29;20498;-58
2024/01/28 11:19:27;;;;;;;11.25;8.43;;;;;;;;;;4934761;28;20073;-59
2024/01/28 11:21:52;;;;;;;11.32;7.70;;;;;;;;;;4937004;29;20031;-59
2024/01/28 11:24:18;;;;;;;7.03;5.90;;;;;;;;;;4936606;29;20051;-58
2024/01/28 11:26:46;;;;;;;8.48;6.88;;;;;;;;;;4930932;29;20028;-60
2024/01/28 11:29:12;;;;;;;8.73;6.82;;;;;;;;;;4932080;29;20058;-59
2024/01/28 11:31:39;;;;;;;7.90;6.93;;;;;;;;;;4935949;29;20390;-60
2024/01/28 11:34:15;;;;;;;9.45;5.82;;;;;;;;;;4936208;28;20051;-58
2024/01/28 11:36:48;;;;;;;10.48;7.63;;;;;;;;;;4936681;29;20028;-60
2024/01/28 11:39:15;;;;;;;8.60;6.60;;;;;;;;;;4939737;29;20578;-60
2024/01/28 11:41:44;;;;;;;10.23;9.13;;;;;;;;;;4942955;29;20027;-59
2024/01/28 11:44:10;;;;;;;7.53;6.15;;;;;;;;;;4935624;29;20047;-58
2024/01/28 11:46:37;;;;;;;9.70;7.65;;;;;;;;;;4936568;29;20042;-59
2024/01/28 11:49:04;;;;;;;9.57;6.72;;;;;;;;;;4937036;29;20028;-59
2024/01/28 11:51:31;;;;;;;7.63;6.38;;;;;;;;;;4940674;28;20360;-59
2024/01/28 11:53:59;;;;;;;7.63;6.72;;;;;;;;;;4938285;29;20032;-59
2024/01/28 11:56:24;;;;;;;8.07;6.07;;;;;;;;;;4938634;29;20540;-59
2024/01/28 11:58:51;;;;;;;7.53;6.10;;;;;;;;;;4938367;29;20106;-59
2024/01/28 12:01:16;;;;;;;8.90;5.82;;;;;;;;;;4940368;29;20114;-58
2024/01/28 12:03:42;;;;;;;8.38;6.43;;;;;;;;;;4940657;29;20062;-59
2024/01/28 12:06:08;;;;;;;9.30;7.20;;;;;;;;;;4938202;29;20090;-57
2024/01/28 12:08:39;;;;;;;7.78;6.15;;;;;;;;;;4937031;29;20042;-59
2024/01/28 12:11:06;;;;;;;8.40;5.53;;;;;;;;;;4936355;29;20116;-59
2024/01/28 12:13:32;;;;;;;6.57;5.10;;;;;;;;;;4939230;29;20063;-57
2024/01/28 12:15:58;;;;;;;8.10;6.65;;;;;;;;;;4936999;29;20540;-59
2024/01/28 12:18:36;;;;;;;10.07;6.97;;;;;;;;;;4936651;29;20110;-58
2024/01/28 12:21:01;;;;;;;7.20;4.90;;;;;;;;;;4937653;29;20043;-58
2024/01/28 12:23:30;;;;;;;6.70;5.13;;;;;;;;;;4935570;29;20031;-57
2024/01/28 12:25:55;;;;;;;7.38;5.47;;;;;;;;;;4933941;29;20058;-59
2024/01/28 12:28:22;;;;;;;9.20;5.47;;;;;;;;;;4937543;29;20028;-59
2024/01/28 12:30:48;;;;;;;6.13;5.10;;;;;;;;;;4937476;29;20675;-59
2024/01/28 12:33:13;;;;;;;7.28;5.20;;;;;;;;;;4931719;29;20182;-59
2024/01/28 12:35:39;;;;;;;4.97;4.43;;;;;;;;;;4940133;28;20462;-59
2024/01/28 12:38:04;;;;;;;8.75;6.07;;;;;;;;;;4936178;29;20036;-58
2024/01/28 12:40:29;;;;;;;8.07;4.72;;;;;;;;;;4937694;29;20058;-59
2024/01/28 12:42:55;;;;;;;9.48;5.20;;;;;;;;;;4938190;29;20435;-60
2024/01/28 12:45:21;;;;;;;8.93;5.68;;;;;;;;;;4933984;29;20095;-59
2024/01/28 12:47:47;;;;;;;9.75;5.90;;;;;;;;;;4935368;29;20036;-60
2024/01/28 12:50:12;;;;;;;9.10;5.85;;;;;;;;;;4935659;29;20659;-59
2024/01/28 12:52:37;;;;;;;6.82;4.97;;;;;;;;;;4932693;29;20111;-58
2024/01/28 12:55:04;;;;;;;9.82;5.57;;;;;;;;;;4936971;29;20039;-60
2024/01/28 12:57:29;;;;;;;7.70;5.05;;;;;;;;;;4937473;29;20118;-59
2024/01/28 12:59:55;;;;;;;7.00;5.22;;;;;;;;;;4931436;29;20114;-59
2024/01/28 13:02:20;;;;;;;7.70;4.80;;;;;;;;;;4934107;29;20038;-58
2024/01/28 13:04:47;;;;;;;7.88;5.30;;;;;;;;;;4936493;29;20574;-59
2024/01/28 13:07:13;;;;;;;9.55;5.45;;;;;;;;;;4932229;29;20055;-59
2024/01/28 13:09:38;;;;;;;9.48;5.68;;;;;;;;;;4936877;28;20525;-60
2024/01/28 13:12:04;;;;;;;8.27;4.53;;;;;;;;;;4935876;29;20055;-59
2024/01/28 13:14:29;;;;;;;6.13;4.65;;;;;;;;;;4938190;29;21015;-59
2024/01/28 13:16:55;;;;;;;7.75;5.05;;;;;;;;;;4939279;29;20055;-59
2024/01/28 13:19:20;;;;;;;7.25;5.45;;;;;;;;;;4938235;29;20047;-59
2024/01/28 13:21:46;;;;;;;7.82;5.03;;;;;;;;;;4931803;29;20035;-59
2024/01/28 13:24:11;;;;;;;6.55;4.85;;;;;;;;;;4938541;29;20043;-59
2024/01/28 13:26:37;;;;;;;6.25;4.97;;;;;;;;;;4931689;29;20085;-59
2024/01/28 13:29:02;;;;;;;8.90;4.40;;;;;;;;;;4936774;29;20088;-59
2024/01/28 13:31:28;;;;;;;8.77;4.53;;;;;;;;;;4937679;29;20023;-58
2024/01/28 13:33:53;;;;;;;7.80;5.70;;;;;;;;;;4937419;29;20058;-59
2024/01/28 13:36:19;;;;;;;7.80;5.07;;;;;;;;;;4936622;29;20410;-59
2024/01/28 13:38:44;;;;;;;6.30;4.47;;;;;;;;;;4931677;29;20637;-59
2024/01/28 13:41:10;;;;;;;7.50;4.78;;;;;;;;;;4936090;29;20060;-59
2024/01/28 13:43:36;;;;;;;9.90;4.85;;;;;;;;;;4939123;29;20396;-59
2024/01/28 13:46:02;;;;;;;7.50;4.78;;;;;;;;;;4937664;29;20051;-59
2024/01/28 13:48:28;;;;;;;11.27;5.63;;;;;;;;;;4937021;29;20032;-58
2024/01/28 13:50:54;;;;;;;8.52;7.00;;;;;;;;;;4932326;29;20122;-59
2024/01/28 13:53:19;;;;;;;10.68;5.55;;;;;;;;;;4931836;29;20486;-59
2024/01/28 13:55:45;;;;;;;12.27;5.57;;;;;;;;;;4933490;29;20036;-59
2024/01/28 13:58:10;;;;;;;8.18;4.78;;;;;;;;;;4938599;29;20047;-58
2024/01/28 14:00:35;;;;;;;9.55;6.00;;;;;;;;;;4933453;29;20127;-58
2024/01/28 14:03:01;;;;;;;11.13;5.35;;;;;;;;;;4935448;29;20019;-59
2024/01/28 14:05:26;;;;;;;11.20;5.55;;;;;;;;;;4936010;29;20054;-58
2024/01/28 14:07:52;;;;;;;11.27;6.32;;;;;;;;;;4933084;29;20031;-58
2024/01/28 14:10:17;;;;;;;14.43;5.43;;;;;;;;;;4934222;29;20043;-58
2024/01/28 14:12:43;;;;;;;9.43;5.65;;;;;;;;;;4936825;29;20386;-56
2024/01/28 14:15:09;;;;;;;11.70;5.80;;;;;;;;;;4936158;28;20519;-59
2024/01/28 14:17:34;;;;;;;11.57;5.78;;;;;;;;;;4937252;29;20043;-58
2024/01/28 14:20:00;;;;;;;8.73;5.63;;;;;;;;;;4935358;29;20102;-59
2024/01/28 14:22:28;;;;;;;9.25;5.20;;;;;;;;;;4935134;29;20071;-59
2024/01/28 14:24:53;;;;;;;9.00;5.40;;;;;;;;;;4934105;28;20107;-59
2024/01/28 14:27:19;;;;;;;7.22;5.75;;;;;;;;;;4935941;29;20035;-58
2024/01/28 14:29:44;;;;;;;7.03;5.40;;;;;;;;;;4932828;29;20553;-59